sensor_id;sensor_type;location;lat;lon;timestamp;pressure;altitude;pressure_sealevel;temperature;humidity
59608;BME280;45426;44.726;10.390;2023-02-28T00:00:51;101115.72;;;3.96;100.00
59608;BME280;45426;44.726;10.390;2023-02-28T00:03:17;101128.06;;;4.13;100.00
59608;BME280;45426;44.726;10.390;2023-02-28T00:05:43;101130.25;;;3.90;100.00
59608;BME280;45426;44.726;10.390;2023-02-28T00:08:08;101130.50;;;3.94;100.00
59608;BME280;45426;44.726;10.390;2023-02-28T00:10:34;101131.03;;;3.96;100.00
59608;BME280;45426;44.726;10.390;2023-02-28T00:13:05;101128.03;;;4.43;100.00
59608;BME280;45426;44.726;10.390;2023-02-28T00:15:31;101129.41;;;4.31;100.00
59608;BME280;45426;44.726;10.390;2023-02-28T00:17:57;101130.50;;;4.04;100.00
59608;BME280;45426;44.726;10.390;2023-02-28T00:20:23;101132.38;;;4.03;100.00
59608;BME280;45426;44.726;10.390;2023-02-28T00:22:51;101136.19;;;3.82;100.00
59608;BME280;45426;44.726;10.390;2023-02-28T00:25:19;101137.94;;;4.43;100.00
59608;BME280;45426;44.726;10.390;2023-02-28T00:27:45;101142.53;;;4.37;100.00
59608;BME280;45426;44.726;10.390;2023-02-28T00:30:13;101135.78;;;4.55;100.00
59608;BME280;45426;44.726;10.390;2023-02-28T00:32:39;101141.50;;;4.23;100.00
59608;BME280;45426;44.726;10.390;2023-02-28T00:35:06;101136.66;;;4.25;100.00
59608;BME280;45426;44.726;10.390;2023-02-28T00:37:31;101144.47;;;4.16;100.00
59608;BME280;45426;44.726;10.390;2023-02-28T00:39:57;101138.56;;;4.19;100.00
59608;BME280;45426;44.726;10.390;2023-02-28T00:42:23;101140.66;;;4.43;100.00
59608;BME280;45426;44.726;10.390;2023-02-28T00:44:48;101142.53;;;4.53;100.00
59608;BME280;45426;44.726;10.390;2023-02-28T00:47:14;101142.56;;;4.27;100.00
59608;BME280;45426;44.726;10.390;2023-02-28T00:49:39;101143.59;;;4.46;100.00
59608;BME280;45426;44.726;10.390;2023-02-28T00:52:05;101144.69;;;4.40;100.00
59608;BME280;45426;44.726;10.390;2023-02-28T00:54:30;101148.50;;;4.19;100.00
59608;BME280;45426;44.726;10.390;2023-02-28T00:56:56;101148.75;;;4.27;100.00
59608;BME280;45426;44.726;10.390;2023-02-28T00:59:21;101143.06;;;4.39;100.00
59608;BME280;45426;44.726;10.390;2023-02-28T01:01:47;101146.38;;;4.21;100.00
59608;BME280;45426;44.726;10.390;2023-02-28T01:04:13;101148.75;;;4.22;100.00
59608;BME280;45426;44.726;10.390;2023-02-28T01:06:39;101153.06;;;4.28;100.00
59608;BME280;45426;44.726;10.390;2023-02-28T01:09:06;101145.28;;;4.06;100.00
59608;BME280;45426;44.726;10.390;2023-02-28T01:11:32;101140.19;;;4.10;100.00
59608;BME280;45426;44.726;10.390;2023-02-28T01:13:59;101145.28;;;4.12;100.00
59608;BME280;45426;44.726;10.390;2023-02-28T01:16:25;101143.31;;;4.58;100.00
59608;BME280;45426;44.726;10.390;2023-02-28T01:18:50;101139.31;;;4.40;100.00
59608;BME280;45426;44.726;10.390;2023-02-28T01:21:17;101140.13;;;4.41;100.00
59608;BME280;45426;44.726;10.390;2023-02-28T01:23:43;101141.97;;;4.51;100.00
59608;BME280;45426;44.726;10.390;2023-02-28T01:26:14;101138.88;;;4.88;100.00
59608;BME280;45426;44.726;10.390;2023-02-28T01:28:40;101136.00;;;4.69;100.00
59608;BME280;45426;44.726;10.390;2023-02-28T01:31:06;101134.16;;;4.54;100.00
59608;BME280;45426;44.726;10.390;2023-02-28T01:33:32;101134.22;;;5.04;100.00
59608;BME280;45426;44.726;10.390;2023-02-28T01:36:05;101138.16;;;4.67;100.00
59608;BME280;45426;44.726;10.390;2023-02-28T01:38:31;101137.63;;;4.70;100.00
59608;BME280;45426;44.726;10.390;2023-02-28T01:40:56;101139.72;;;4.78;100.00
59608;BME280;45426;44.726;10.390;2023-02-28T01:43:30;101141.63;;;4.67;100.00
59608;BME280;45426;44.726;10.390;2023-02-28T01:45:57;101124.31;;;4.94;100.00
59608;BME280;45426;44.726;10.390;2023-02-28T01:48:29;101129.47;;;4.80;100.00
59608;BME280;45426;44.726;10.390;2023-02-28T01:50:59;101135.97;;;4.74;100.00
59608;BME280;45426;44.726;10.390;2023-02-28T01:53:39;101134.94;;;4.65;100.00
59608;BME280;45426;44.726;10.390;2023-02-28T01:56:08;101128.44;;;4.71;100.00
59608;BME280;45426;44.726;10.390;2023-02-28T01:58:36;101131.88;;;4.87;100.00
59608;BME280;45426;44.726;10.390;2023-02-28T02:01:02;101124.63;;;4.82;100.00
59608;BME280;45426;44.726;10.390;2023-02-28T02:03:28;101122.19;;;4.86;100.00
59608;BME280;45426;44.726;10.390;2023-02-28T02:05:54;101123.47;;;4.99;100.00
59608;BME280;45426;44.726;10.390;2023-02-28T02:08:23;101125.28;;;4.54;100.00
59608;BME280;45426;44.726;10.390;2023-02-28T02:10:52;101123.03;;;4.81;100.00
59608;BME280;45426;44.726;10.390;2023-02-28T02:16:31;101123.81;;;4.82;100.00
59608;BME280;45426;44.726;10.390;2023-02-28T02:19:38;101124.06;;;4.96;100.00
59608;BME280;45426;44.726;10.390;2023-02-28T02:22:30;101110.63;;;4.80;100.00
59608;BME280;45426;44.726;10.390;2023-02-28T02:28:10;101104.16;;;4.86;100.00
59608;BME280;45426;44.726;10.390;2023-02-28T02:38:35;101125.22;;;4.74;100.00
59608;BME280;45426;44.726;10.390;2023-02-28T02:41:24;101123.56;;;4.78;100.00
59608;BME280;45426;44.726;10.390;2023-02-28T02:44:02;101137.88;;;4.69;100.00
59608;BME280;45426;44.726;10.390;2023-02-28T02:46:35;101141.44;;;4.48;100.00
59608;BME280;45426;44.726;10.390;2023-02-28T02:49:05;101132.56;;;4.43;100.00
59608;BME280;45426;44.726;10.390;2023-02-28T02:51:32;101132.75;;;4.77;100.00
59608;BME280;45426;44.726;10.390;2023-02-28T02:54:26;101132.16;;;4.91;100.00
59608;BME280;45426;44.726;10.390;2023-02-28T02:56:56;101130.00;;;4.82;100.00
59608;BME280;45426;44.726;10.390;2023-02-28T02:59:22;101132.69;;;4.88;100.00
59608;BME280;45426;44.726;10.390;2023-02-28T03:01:54;101133.81;;;4.81;100.00
59608;BME280;45426;44.726;10.390;2023-02-28T03:04:23;101130.31;;;4.81;100.00
59608;BME280;45426;44.726;10.390;2023-02-28T03:06:51;101132.84;;;4.46;100.00
59608;BME280;45426;44.726;10.390;2023-02-28T03:09:21;101138.78;;;4.33;100.00
59608;BME280;45426;44.726;10.390;2023-02-28T03:11:47;101131.63;;;4.83;100.00
59608;BME280;45426;44.726;10.390;2023-02-28T03:27:29;101129.84;;;4.58;100.00
59608;BME280;45426;44.726;10.390;2023-02-28T03:30:06;101128.22;;;4.57;100.00
59608;BME280;45426;44.726;10.390;2023-02-28T03:35:23;101135.53;;;4.52;100.00
59608;BME280;45426;44.726;10.390;2023-02-28T03:37:54;101133.09;;;4.55;100.00
59608;BME280;45426;44.726;10.390;2023-02-28T03:40:25;101132.25;;;4.60;100.00
59608;BME280;45426;44.726;10.390;2023-02-28T03:42:58;101141.69;;;4.62;100.00
59608;BME280;45426;44.726;10.390;2023-02-28T03:45:30;101134.41;;;4.68;100.00
59608;BME280;45426;44.726;10.390;2023-02-28T03:47:59;101136.66;;;4.25;100.00
59608;BME280;45426;44.726;10.390;2023-02-28T03:50:31;101134.72;;;4.51;100.00
59608;BME280;45426;44.726;10.390;2023-02-28T03:53:09;101135.00;;;4.44;100.00
59608;BME280;45426;44.726;10.390;2023-02-28T03:55:49;101139.25;;;4.61;100.00
59608;BME280;45426;44.726;10.390;2023-02-28T03:58:20;101130.16;;;4.41;100.00
59608;BME280;45426;44.726;10.390;2023-02-28T04:00:50;101140.94;;;4.31;100.00
59608;BME280;45426;44.726;10.390;2023-02-28T04:03:18;101144.34;;;4.67;100.00
59608;BME280;45426;44.726;10.390;2023-02-28T04:06:02;101139.34;;;4.15;100.00
59608;BME280;45426;44.726;10.390;2023-02-28T04:08:27;101139.84;;;4.47;100.00
59608;BME280;45426;44.726;10.390;2023-02-28T04:11:07;101141.22;;;4.40;100.00
59608;BME280;45426;44.726;10.390;2023-02-28T04:13:33;101142.53;;;4.37;100.00
59608;BME280;45426;44.726;10.390;2023-02-28T04:15:59;101141.94;;;4.66;100.00
59608;BME280;45426;44.726;10.390;2023-02-28T04:18:24;101141.47;;;4.33;100.00
59608;BME280;45426;44.726;10.390;2023-02-28T04:20:50;101151.63;;;4.67;100.00
59608;BME280;45426;44.726;10.390;2023-02-28T04:23:15;101147.34;;;4.61;100.00
59608;BME280;45426;44.726;10.390;2023-02-28T04:25:40;101152.19;;;4.54;100.00
59608;BME280;45426;44.726;10.390;2023-02-28T04:28:06;101154.88;;;4.64;100.00
59608;BME280;45426;44.726;10.390;2023-02-28T04:30:32;101153.81;;;4.50;100.00
59608;BME280;45426;44.726;10.390;2023-02-28T04:32:58;101155.41;;;4.61;100.00
59608;BME280;45426;44.726;10.390;2023-02-28T04:35:23;101149.53;;;4.38;100.00
59608;BME280;45426;44.726;10.390;2023-02-28T04:37:49;101161.09;;;4.39;100.00
59608;BME280;45426;44.726;10.390;2023-02-28T04:40:15;101162.44;;;4.52;100.00
59608;BME280;45426;44.726;10.390;2023-02-28T04:42:40;101160.84;;;4.40;100.00
59608;BME280;45426;44.726;10.390;2023-02-28T04:45:06;101161.84;;;4.65;100.00
59608;BME280;45426;44.726;10.390;2023-02-28T04:47:32;101150.88;;;4.51;100.00
59608;BME280;45426;44.726;10.390;2023-02-28T04:49:57;101160.84;;;4.45;100.00
59608;BME280;45426;44.726;10.390;2023-02-28T04:52:23;101157.63;;;4.38;100.00
59608;BME280;45426;44.726;10.390;2023-02-28T04:54:48;101164.28;;;4.56;100.00
59608;BME280;45426;44.726;10.390;2023-02-28T04:57:14;101160.81;;;4.51;100.00
59608;BME280;45426;44.726;10.390;2023-02-28T04:59:40;101158.34;;;4.70;100.00
59608;BME280;45426;44.726;10.390;2023-02-28T05:02:05;101164.84;;;4.53;100.00
59608;BME280;45426;44.726;10.390;2023-02-28T05:04:35;101161.09;;;4.49;100.00
59608;BME280;45426;44.726;10.390;2023-02-28T05:07:02;101158.63;;;4.63;100.00
59608;BME280;45426;44.726;10.390;2023-02-28T05:09:28;101154.03;;;4.63;100.00
59608;BME280;45426;44.726;10.390;2023-02-28T05:11:54;101162.44;;;4.57;100.00
59608;BME280;45426;44.726;10.390;2023-02-28T05:14:20;101163.47;;;4.61;100.00
59608;BME280;45426;44.726;10.390;2023-02-28T05:16:45;101158.88;;;4.66;100.00
59608;BME280;45426;44.726;10.390;2023-02-28T05:19:11;101161.03;;;4.70;100.00
59608;BME280;45426;44.726;10.390;2023-02-28T05:21:41;101154.31;;;4.62;100.00
59608;BME280;45426;44.726;10.390;2023-02-28T05:24:10;101159.94;;;4.65;100.00
59608;BME280;45426;44.726;10.390;2023-02-28T05:26:41;101158.69;;;4.37;100.00
59608;BME280;45426;44.726;10.390;2023-02-28T05:29:07;101155.47;;;4.45;100.00
59608;BME280;45426;44.726;10.390;2023-02-28T05:31:33;101158.16;;;4.45;100.00
59608;BME280;45426;44.726;10.390;2023-02-28T05:33:59;101169.41;;;4.58;100.00
59608;BME280;45426;44.726;10.390;2023-02-28T05:36:25;101165.91;;;4.57;100.00
59608;BME280;45426;44.726;10.390;2023-02-28T05:38:51;101162.75;;;4.24;100.00
59608;BME280;45426;44.726;10.390;2023-02-28T05:41:18;101159.47;;;4.43;100.00
59608;BME280;45426;44.726;10.390;2023-02-28T05:43:45;101167.88;;;4.16;100.00
59608;BME280;45426;44.726;10.390;2023-02-28T05:46:12;101166.72;;;4.58;100.00
59608;BME280;45426;44.726;10.390;2023-02-28T05:48:39;101167.59;;;4.22;100.00
59608;BME280;45426;44.726;10.390;2023-02-28T05:51:05;101174.81;;;4.47;100.00
59608;BME280;45426;44.726;10.390;2023-02-28T05:53:31;101168.88;;;4.56;100.00
59608;BME280;45426;44.726;10.390;2023-02-28T05:55:57;101172.06;;;4.73;100.00
59608;BME280;45426;44.726;10.390;2023-02-28T05:58:23;101174.31;;;4.25;100.00
59608;BME280;45426;44.726;10.390;2023-02-28T06:00:51;101175.13;;;4.20;100.00
59608;BME280;45426;44.726;10.390;2023-02-28T06:03:16;101179.69;;;4.35;100.00
59608;BME280;45426;44.726;10.390;2023-02-28T06:05:42;101178.09;;;3.93;100.00
59608;BME280;45426;44.726;10.390;2023-02-28T06:08:07;101182.38;;;4.09;100.00
59608;BME280;45426;44.726;10.390;2023-02-28T06:10:35;101178.34;;;4.07;100.00
59608;BME280;45426;44.726;10.390;2023-02-28T06:13:02;101189.38;;;3.90;100.00
59608;BME280;45426;44.726;10.390;2023-02-28T06:15:28;101188.28;;;3.76;100.00
59608;BME280;45426;44.726;10.390;2023-02-28T06:17:54;101192.34;;;3.78;100.00
59608;BME280;45426;44.726;10.390;2023-02-28T06:20:22;101199.00;;;3.55;100.00
59608;BME280;45426;44.726;10.390;2023-02-28T06:22:49;101206.25;;;3.44;100.00
59608;BME280;45426;44.726;10.390;2023-02-28T06:25:16;101227.34;;;3.10;100.00
59608;BME280;45426;44.726;10.390;2023-02-28T06:27:42;101222.38;;;3.49;100.00
59608;BME280;45426;44.726;10.390;2023-02-28T06:30:09;101230.13;;;3.30;100.00
59608;BME280;45426;44.726;10.390;2023-02-28T06:32:34;101231.81;;;3.52;100.00
59608;BME280;45426;44.726;10.390;2023-02-28T06:35:01;101242.84;;;2.92;100.00
59608;BME280;45426;44.726;10.390;2023-02-28T06:37:26;101232.78;;;3.25;100.00
59608;BME280;45426;44.726;10.390;2023-02-28T06:39:52;101237.75;;;3.59;100.00
59608;BME280;45426;44.726;10.390;2023-02-28T06:42:17;101238.81;;;3.63;100.00
59608;BME280;45426;44.726;10.390;2023-02-28T06:44:43;101239.38;;;3.71;100.00
59608;BME280;45426;44.726;10.390;2023-02-28T06:47:08;101232.88;;;3.66;100.00
59608;BME280;45426;44.726;10.390;2023-02-28T06:49:35;101239.81;;;3.37;100.00
59608;BME280;45426;44.726;10.390;2023-02-28T06:52:01;101245.13;;;3.26;100.00
59608;BME280;45426;44.726;10.390;2023-02-28T06:54:26;101241.94;;;3.29;100.00
59608;BME280;45426;44.726;10.390;2023-02-28T06:56:52;101242.78;;;3.35;100.00
59608;BME280;45426;44.726;10.390;2023-02-28T06:59:19;101240.81;;;3.20;100.00
59608;BME280;45426;44.726;10.390;2023-02-28T07:01:45;101246.78;;;3.27;100.00
59608;BME280;45426;44.726;10.390;2023-02-28T07:04:10;101243.38;;;3.68;100.00
59608;BME280;45426;44.726;10.390;2023-02-28T07:06:36;101240.63;;;3.37;100.00
59608;BME280;45426;44.726;10.390;2023-02-28T07:09:01;101255.84;;;3.16;100.00
59608;BME280;45426;44.726;10.390;2023-02-28T07:11:27;101251.84;;;3.29;100.00
59608;BME280;45426;44.726;10.390;2023-02-28T07:13:56;101259.63;;;3.25;100.00
59608;BME280;45426;44.726;10.390;2023-02-28T07:16:23;101259.59;;;3.15;100.00
59608;BME280;45426;44.726;10.390;2023-02-28T07:18:52;101263.88;;;3.11;100.00
59608;BME280;45426;44.726;10.390;2023-02-28T07:21:17;101262.03;;;3.17;100.00
59608;BME280;45426;44.726;10.390;2023-02-28T07:23:43;101251.09;;;3.44;100.00
59608;BME280;45426;44.726;10.390;2023-02-28T07:26:13;101252.72;;;3.45;100.00
59608;BME280;45426;44.726;10.390;2023-02-28T07:28:44;101259.16;;;2.81;100.00
59608;BME280;45426;44.726;10.390;2023-02-28T07:31:10;101264.34;;;2.98;100.00
59608;BME280;45426;44.726;10.390;2023-02-28T07:33:37;101271.88;;;2.96;100.00
59608;BME280;45426;44.726;10.390;2023-02-28T07:36:05;101266.75;;;2.99;100.00
59608;BME280;45426;44.726;10.390;2023-02-28T07:38:33;101267.03;;;2.98;100.00
59608;BME280;45426;44.726;10.390;2023-02-28T07:40:58;101271.69;;;3.18;100.00
59608;BME280;45426;44.726;10.390;2023-02-28T07:43:24;101261.41;;;3.67;100.00
59608;BME280;45426;44.726;10.390;2023-02-28T07:45:49;101269.50;;;4.03;100.00
59608;BME280;45426;44.726;10.390;2023-02-28T07:48:15;101275.75;;;3.25;100.00
59608;BME280;45426;44.726;10.390;2023-02-28T07:50:40;101264.13;;;3.88;100.00
59608;BME280;45426;44.726;10.390;2023-02-28T07:53:06;101268.75;;;4.28;100.00
59608;BME280;45426;44.726;10.390;2023-02-28T07:55:31;101277.91;;;3.28;100.00
59608;BME280;45426;44.726;10.390;2023-02-28T07:57:57;101286.56;;;3.41;100.00
59608;BME280;45426;44.726;10.390;2023-02-28T08:00:23;101284.91;;;3.29;100.00
59608;BME280;45426;44.726;10.390;2023-02-28T08:02:49;101287.44;;;3.62;100.00
59608;BME280;45426;44.726;10.390;2023-02-28T08:05:14;101278.69;;;4.33;100.00
59608;BME280;45426;44.726;10.390;2023-02-28T08:07:40;101275.88;;;3.66;100.00
59608;BME280;45426;44.726;10.390;2023-02-28T08:10:06;101280.13;;;3.37;100.00
59608;BME280;45426;44.726;10.390;2023-02-28T08:12:32;101292.13;;;3.24;100.00
59608;BME280;45426;44.726;10.390;2023-02-28T08:14:57;101287.50;;;3.14;100.00
59608;BME280;45426;44.726;10.390;2023-02-28T08:17:23;101281.09;;;3.99;100.00
59608;BME280;45426;44.726;10.390;2023-02-28T08:19:48;101297.00;;;3.32;100.00
59608;BME280;45426;44.726;10.390;2023-02-28T08:22:13;101298.28;;;3.19;100.00
59608;BME280;45426;44.726;10.390;2023-02-28T08:24:41;101294.81;;;4.02;100.00
59608;BME280;45426;44.726;10.390;2023-02-28T08:27:07;101295.75;;;3.55;100.00
59608;BME280;45426;44.726;10.390;2023-02-28T08:29:33;101289.31;;;3.56;100.00
59608;BME280;45426;44.726;10.390;2023-02-28T08:31:58;101287.28;;;4.15;100.00
59608;BME280;45426;44.726;10.390;2023-02-28T08:34:24;101285.41;;;4.31;100.00
59608;BME280;45426;44.726;10.390;2023-02-28T08:36:49;101284.28;;;3.85;100.00
59608;BME280;45426;44.726;10.390;2023-02-28T08:39:14;101303.72;;;3.35;100.00
59608;BME280;45426;44.726;10.390;2023-02-28T08:41:42;101297.84;;;3.43;100.00
59608;BME280;45426;44.726;10.390;2023-02-28T08:44:07;101291.75;;;3.68;100.00
59608;BME280;45426;44.726;10.390;2023-02-28T08:46:33;101295.25;;;3.63;100.00
59608;BME280;45426;44.726;10.390;2023-02-28T08:48:58;101298.00;;;3.16;100.00
59608;BME280;45426;44.726;10.390;2023-02-28T08:51:27;101294.25;;;4.05;100.00
59608;BME280;45426;44.726;10.390;2023-02-28T08:53:54;101285.41;;;4.41;100.00
59608;BME280;45426;44.726;10.390;2023-02-28T08:56:20;101295.31;;;3.84;100.00
59608;BME280;45426;44.726;10.390;2023-02-28T08:58:48;101294.72;;;3.61;100.00
59608;BME280;45426;44.726;10.390;2023-02-28T09:03:40;101293.19;;;4.06;100.00
59608;BME280;45426;44.726;10.390;2023-02-28T09:06:07;101304.44;;;3.88;100.00
59608;BME280;45426;44.726;10.390;2023-02-28T09:08:33;101311.03;;;3.49;100.00
59608;BME280;45426;44.726;10.390;2023-02-28T09:10:58;101302.81;;;3.82;100.00
59608;BME280;45426;44.726;10.390;2023-02-28T09:13:26;101298.03;;;4.86;100.00
59608;BME280;45426;44.726;10.390;2023-02-28T09:15:52;101297.25;;;4.30;100.00
59608;BME280;45426;44.726;10.390;2023-02-28T09:18:17;101306.09;;;4.09;100.00
59608;BME280;45426;44.726;10.390;2023-02-28T09:20:43;101303.13;;;3.96;100.00
59608;BME280;45426;44.726;10.390;2023-02-28T09:23:10;101302.09;;;4.48;100.00
59608;BME280;45426;44.726;10.390;2023-02-28T09:25:36;101307.41;;;4.02;100.00
59608;BME280;45426;44.726;10.390;2023-02-28T09:28:02;101308.53;;;4.06;100.00
59608;BME280;45426;44.726;10.390;2023-02-28T09:30:27;101310.41;;;4.16;100.00
59608;BME280;45426;44.726;10.390;2023-02-28T09:32:53;101305.56;;;4.07;100.00
59608;BME280;45426;44.726;10.390;2023-02-28T09:35:23;101301.81;;;4.60;100.00
59608;BME280;45426;44.726;10.390;2023-02-28T09:37:49;101301.53;;;4.66;100.00
59608;BME280;45426;44.726;10.390;2023-02-28T09:40:17;101304.75;;;4.12;100.00
59608;BME280;45426;44.726;10.390;2023-02-28T09:42:45;101309.34;;;4.22;100.00
59608;BME280;45426;44.726;10.390;2023-02-28T09:45:36;101306.41;;;4.49;100.00
59608;BME280;45426;44.726;10.390;2023-02-28T09:48:14;101297.75;;;4.73;100.00
59608;BME280;45426;44.726;10.390;2023-02-28T09:50:51;101299.25;;;5.30;100.00
59608;BME280;45426;44.726;10.390;2023-02-28T09:53:29;101304.78;;;4.74;100.00
59608;BME280;45426;44.726;10.390;2023-02-28T09:56:15;101309.63;;;4.46;100.00
59608;BME280;45426;44.726;10.390;2023-02-28T09:58:50;101312.81;;;4.89;100.00
59608;BME280;45426;44.726;10.390;2023-02-28T10:01:55;101305.00;;;4.82;100.00
59608;BME280;45426;44.726;10.390;2023-02-28T10:04:47;101307.06;;;5.27;100.00
59608;BME280;45426;44.726;10.390;2023-02-28T10:13:00;101299.66;;;5.63;100.00
59608;BME280;45426;44.726;10.390;2023-02-28T10:15:30;101295.97;;;5.98;100.00
59608;BME280;45426;44.726;10.390;2023-02-28T10:18:11;101303.66;;;6.20;100.00
59608;BME280;45426;44.726;10.390;2023-02-28T10:20:40;101299.22;;;6.00;100.00
59608;BME280;45426;44.726;10.390;2023-02-28T10:23:28;101300.34;;;5.89;100.00
59608;BME280;45426;44.726;10.390;2023-02-28T10:26:04;101300.78;;;6.07;100.00
59608;BME280;45426;44.726;10.390;2023-02-28T10:28:35;101298.59;;;6.14;100.00
59608;BME280;45426;44.726;10.390;2023-02-28T10:31:00;101303.09;;;6.24;100.00
59608;BME280;45426;44.726;10.390;2023-02-28T10:33:30;101297.28;;;6.40;100.00
59608;BME280;45426;44.726;10.390;2023-02-28T10:35:57;101290.75;;;6.47;100.00
59608;BME280;45426;44.726;10.390;2023-02-28T10:38:27;101292.78;;;6.89;100.00
59608;BME280;45426;44.726;10.390;2023-02-28T10:41:05;101291.31;;;7.02;100.00
59608;BME280;45426;44.726;10.390;2023-02-28T10:43:30;101295.47;;;5.91;100.00
59608;BME280;45426;44.726;10.390;2023-02-28T10:46:03;101296.44;;;6.11;100.00
59608;BME280;45426;44.726;10.390;2023-02-28T10:48:44;101296.44;;;6.74;100.00
59608;BME280;45426;44.726;10.390;2023-02-28T10:51:12;101299.13;;;6.79;100.00
59608;BME280;45426;44.726;10.390;2023-02-28T10:53:45;101298.06;;;6.75;100.00
59608;BME280;45426;44.726;10.390;2023-02-28T10:56:19;101296.81;;;6.33;100.00
59608;BME280;45426;44.726;10.390;2023-02-28T10:59:01;101291.38;;;6.97;100.00
59608;BME280;45426;44.726;10.390;2023-02-28T11:03:55;101285.25;;;7.34;100.00
59608;BME280;45426;44.726;10.390;2023-02-28T11:06:40;101287.06;;;6.96;100.00
59608;BME280;45426;44.726;10.390;2023-02-28T11:09:30;101284.94;;;7.41;100.00
59608;BME280;45426;44.726;10.390;2023-02-28T11:11:56;101279.72;;;7.02;100.00
59608;BME280;45426;44.726;10.390;2023-02-28T11:14:26;101282.56;;;7.34;100.00
59608;BME280;45426;44.726;10.390;2023-02-28T11:16:52;101271.59;;;7.26;100.00
59608;BME280;45426;44.726;10.390;2023-02-28T11:19:22;101274.94;;;7.61;100.00
59608;BME280;45426;44.726;10.390;2023-02-28T11:21:55;101273.16;;;7.32;100.00
59608;BME280;45426;44.726;10.390;2023-02-28T11:24:27;101279.56;;;7.36;100.00
59608;BME280;45426;44.726;10.390;2023-02-28T11:26:54;101269.28;;;7.38;100.00
59608;BME280;45426;44.726;10.390;2023-02-28T11:32:21;101269.22;;;6.95;100.00
59608;BME280;45426;44.726;10.390;2023-02-28T11:35:00;101266.97;;;6.78;100.00
59608;BME280;45426;44.726;10.390;2023-02-28T11:37:27;101256.00;;;7.17;100.00
59608;BME280;45426;44.726;10.390;2023-02-28T11:39:54;101263.44;;;6.53;100.00
59608;BME280;45426;44.726;10.390;2023-02-28T11:47:44;101247.75;;;6.55;100.00
59608;BME280;45426;44.726;10.390;2023-02-28T11:50:49;101248.59;;;6.51;100.00
59608;BME280;45426;44.726;10.390;2023-02-28T12:04:31;101228.41;;;6.72;100.00
59608;BME280;45426;44.726;10.390;2023-02-28T12:07:06;101230.38;;;7.15;100.00
59608;BME280;45426;44.726;10.390;2023-02-28T12:09:44;101229.28;;;6.38;100.00
59608;BME280;45426;44.726;10.390;2023-02-28T12:20:45;101213.47;;;7.04;100.00
59608;BME280;45426;44.726;10.390;2023-02-28T12:29:19;101187.44;;;7.13;100.00
59608;BME280;45426;44.726;10.390;2023-02-28T12:32:13;101175.31;;;7.49;100.00
59608;BME280;45426;44.726;10.390;2023-02-28T12:34:45;101166.03;;;8.53;100.00
59608;BME280;45426;44.726;10.390;2023-02-28T12:37:25;101167.56;;;9.38;100.00
59608;BME280;45426;44.726;10.390;2023-02-28T12:39:59;101165.66;;;8.27;100.00
59608;BME280;45426;44.726;10.390;2023-02-28T12:42:32;101158.38;;;9.11;100.00
59608;BME280;45426;44.726;10.390;2023-02-28T12:45:03;101155.59;;;8.61;100.00
59608;BME280;45426;44.726;10.390;2023-02-28T12:47:30;101154.97;;;7.70;100.00
59608;BME280;45426;44.726;10.390;2023-02-28T12:50:03;101157.81;;;7.03;100.00
59608;BME280;45426;44.726;10.390;2023-02-28T12:52:37;101148.50;;;7.52;100.00
59608;BME280;45426;44.726;10.390;2023-02-28T12:55:13;101155.66;;;7.05;100.00
59608;BME280;45426;44.726;10.390;2023-02-28T13:00:22;101141.16;;;7.72;100.00
59608;BME280;45426;44.726;10.390;2023-02-28T13:05:54;101151.81;;;7.82;100.00
59608;BME280;45426;44.726;10.390;2023-02-28T13:11:33;101135.47;;;8.20;100.00
59608;BME280;45426;44.726;10.390;2023-02-28T13:14:05;101134.94;;;7.71;100.00
59608;BME280;45426;44.726;10.390;2023-02-28T13:19:22;101132.97;;;8.38;100.00
59608;BME280;45426;44.726;10.390;2023-02-28T13:21:50;101128.56;;;7.81;100.00
59608;BME280;45426;44.726;10.390;2023-02-28T13:29:31;101125.22;;;8.03;100.00
59608;BME280;45426;44.726;10.390;2023-02-28T13:39:51;101114.22;;;6.91;100.00
59608;BME280;45426;44.726;10.390;2023-02-28T13:47:50;101099.41;;;7.26;100.00
59608;BME280;45426;44.726;10.390;2023-02-28T13:58:40;101090.13;;;7.84;100.00
59608;BME280;45426;44.726;10.390;2023-02-28T14:07:08;101087.97;;;8.14;100.00
59608;BME280;45426;44.726;10.390;2023-02-28T14:09:41;101085.13;;;7.91;100.00
59608;BME280;45426;44.726;10.390;2023-02-28T14:18:20;101070.53;;;7.73;100.00
59608;BME280;45426;44.726;10.390;2023-02-28T14:20:48;101070.13;;;7.33;100.00
59608;BME280;45426;44.726;10.390;2023-02-28T14:23:34;101082.31;;;7.12;100.00
59608;BME280;45426;44.726;10.390;2023-02-28T14:26:33;101080.28;;;7.04;100.00
59608;BME280;45426;44.726;10.390;2023-02-28T14:31:42;101063.34;;;6.98;100.00
59608;BME280;45426;44.726;10.390;2023-02-28T14:36:44;101063.50;;;7.58;100.00
59608;BME280;45426;44.726;10.390;2023-02-28T14:39:16;101055.78;;;7.33;100.00
59608;BME280;45426;44.726;10.390;2023-02-28T14:41:44;101050.69;;;7.31;100.00
59608;BME280;45426;44.726;10.390;2023-02-28T14:46:42;101044.31;;;7.41;100.00
59608;BME280;45426;44.726;10.390;2023-02-28T14:49:29;101051.22;;;7.80;100.00
59608;BME280;45426;44.726;10.390;2023-02-28T14:52:20;101055.72;;;7.38;100.00
59608;BME280;45426;44.726;10.390;2023-02-28T14:54:46;101051.81;;;7.77;100.00
59608;BME280;45426;44.726;10.390;2023-02-28T14:57:33;101047.19;;;7.12;100.00
59608;BME280;45426;44.726;10.390;2023-02-28T15:00:16;101044.22;;;7.13;100.00
59608;BME280;45426;44.726;10.390;2023-02-28T15:02:42;101054.53;;;6.92;100.00
59608;BME280;45426;44.726;10.390;2023-02-28T15:07:42;101047.94;;;6.98;100.00